createdAt,value
2018-08-19T00:00:30.684Z,100986.13
2018-08-19T00:03:28.448Z,100984.06
2018-08-19T00:06:26.306Z,100976.25
2018-08-19T00:09:24.403Z,100967.64
2018-08-19T00:12:22.328Z,100967.42
2018-08-19T00:15:20.156Z,100971.27
2018-08-19T00:18:19.137Z,100972.37
2018-08-19T00:21:17.138Z,100968.41
2018-08-19T00:24:14.880Z,100962.72
2018-08-19T00:27:12.907Z,100967.91
2018-08-19T00:30:11.845Z,100966.21
2018-08-19T00:33:09.859Z,100964.30
2018-08-19T00:36:07.628Z,100966.91
2018-08-19T00:39:05.321Z,100963.64
2018-08-19T00:42:03.321Z,100965.59
2018-08-19T00:45:01.303Z,100966.58
2018-08-19T00:47:59.173Z,100971.18
2018-08-19T00:50:56.936Z,100974.12
2018-08-19T00:53:54.611Z,100962.14
2018-08-19T00:56:54.643Z,100966.12
2018-08-19T00:59:52.063Z,100965.58
2018-08-19T01:02:50.013Z,100967.36
2018-08-19T01:05:47.783Z,100965.55
2018-08-19T01:08:45.684Z,100960.12
2018-08-19T01:11:49.808Z,100962.48
2018-08-19T01:14:47.824Z,100964.40
2018-08-19T01:17:47.935Z,100967.87
2018-08-19T01:20:45.701Z,100960.13
2018-08-19T01:23:43.796Z,100963.98
2018-08-19T01:26:42.783Z,100962.30
2018-08-19T01:29:51.233Z,100968.71
2018-08-19T01:32:49.227Z,100969.19
2018-08-19T01:35:46.968Z,100970.95
2018-08-19T01:38:44.960Z,100973.38
2018-08-19T01:41:42.834Z,100975.16
2018-08-19T01:44:40.960Z,100975.59
2018-08-19T01:47:38.884Z,100968.33
2018-08-19T01:50:37.944Z,100973.23
2018-08-19T01:53:35.770Z,100966.39
2018-08-19T01:56:33.495Z,100961.47
2018-08-19T01:59:31.221Z,100964.08
2018-08-19T02:02:29.145Z,100965.84
2018-08-19T02:05:27.843Z,100966.17
2018-08-19T02:08:25.692Z,100965.13
2018-08-19T02:11:32.787Z,100960.60
2018-08-19T02:14:30.772Z,100960.81
2018-08-19T02:17:28.818Z,100963.25
2018-08-19T02:20:27.024Z,100960.39
2018-08-19T02:23:25.096Z,100959.67
2018-08-19T02:26:28.048Z,100957.70
2018-08-19T02:29:37.946Z,100965.36
2018-08-19T02:32:36.015Z,100963.03
2018-08-19T02:35:33.065Z,100960.23
2018-08-19T02:38:31.024Z,100958.13
2018-08-19T02:41:29.028Z,100961.00
2018-08-19T02:44:27.073Z,100955.87
2018-08-19T02:47:24.979Z,100953.78
2018-08-19T02:50:23.109Z,100953.39
2018-08-19T02:53:21.296Z,100945.56
2018-08-19T02:56:19.739Z,100948.11
2018-08-19T02:59:17.736Z,100951.02
2018-08-19T03:02:15.725Z,100951.04
2018-08-19T03:05:13.408Z,100951.94
2018-08-19T03:08:11.372Z,100952.80
2018-08-19T03:11:09.311Z,100953.44
2018-08-19T03:14:07.322Z,100952.78
2018-08-19T03:17:05.029Z,100943.36
2018-08-19T03:20:05.014Z,100945.70
2018-08-19T03:23:03.115Z,100943.15
2018-08-19T03:26:01.128Z,100943.89
2018-08-19T03:28:59.132Z,100941.13
2018-08-19T03:32:01.927Z,100936.62
2018-08-19T03:35:01.851Z,100938.02
2018-08-19T03:38:00.773Z,100931.90
2018-08-19T03:40:58.524Z,100936.88
2018-08-19T03:44:01.429Z,100934.81
2018-08-19T03:46:59.196Z,100925.02
2018-08-19T03:49:58.095Z,100931.98
2018-08-19T03:52:57.875Z,100927.95
2018-08-19T03:55:54.989Z,100926.64
2018-08-19T03:58:54.013Z,100932.11
2018-08-19T04:01:58.992Z,100923.91
2018-08-19T04:04:56.324Z,100926.06
2018-08-19T04:07:54.215Z,100930.07
2018-08-19T04:10:53.309Z,100935.31
2018-08-19T04:13:50.566Z,100932.20
2018-08-19T04:16:48.544Z,100935.55
2018-08-19T04:19:47.557Z,100937.39
2018-08-19T04:22:45.504Z,100932.75
2018-08-19T04:25:43.400Z,100931.02
2018-08-19T04:28:41.237Z,100932.98
2018-08-19T04:31:39.259Z,100931.35
2018-08-19T04:34:37.296Z,100935.16
2018-08-19T04:37:36.322Z,100928.94
2018-08-19T04:40:34.294Z,100924.75
2018-08-19T04:43:34.264Z,100926.30
2018-08-19T04:46:32.243Z,100927.19
2018-08-19T04:49:31.288Z,100918.13
2018-08-19T04:52:29.476Z,100914.53
2018-08-19T04:55:27.337Z,100909.97
2018-08-19T04:58:25.279Z,100907.68
2018-08-19T05:01:23.155Z,100909.05
2018-08-19T05:04:20.108Z,100905.00
2018-08-19T05:07:18.119Z,100902.03
2018-08-19T05:10:16.179Z,100908.34
2018-08-19T05:13:15.048Z,100911.80
2018-08-19T05:16:13.063Z,100906.63
2018-08-19T05:19:11.023Z,100902.44
2018-08-19T05:22:14.942Z,100906.83
2018-08-19T05:25:12.913Z,100910.53
2018-08-19T05:28:13.920Z,100908.72
2018-08-19T05:31:11.712Z,100905.19
2018-08-19T05:34:09.715Z,100907.16
2018-08-19T05:37:08.616Z,100911.14
2018-08-19T05:40:07.092Z,100914.89
2018-08-19T05:43:04.999Z,100903.19
2018-08-19T05:46:03.244Z,100908.95
2018-08-19T05:49:06.257Z,100909.24
2018-08-19T05:52:06.059Z,100907.25
2018-08-19T05:55:04.992Z,100907.05
2018-08-19T05:58:03.012Z,100910.44
2018-08-19T06:01:07.261Z,100909.84
2018-08-19T06:04:05.238Z,100907.09
2018-08-19T06:07:08.155Z,100912.45
2018-08-19T06:10:05.976Z,100906.01
2018-08-19T06:13:04.019Z,100909.83
2018-08-19T06:16:01.986Z,100916.80
2018-08-19T06:18:59.915Z,100909.45
2018-08-19T06:21:57.633Z,100918.37
2018-08-19T06:24:55.461Z,100920.42
2018-08-19T06:27:54.456Z,100915.27
2018-08-19T06:30:52.377Z,100917.59
2018-08-19T06:33:49.478Z,100918.27
2018-08-19T06:36:46.699Z,100913.80
2018-08-19T06:39:43.756Z,100906.88
2018-08-19T06:42:41.740Z,100911.83
2018-08-19T06:45:39.809Z,100904.03
2018-08-19T06:48:37.078Z,100894.00
2018-08-19T06:51:35.018Z,100902.17
2018-08-19T06:54:32.424Z,100901.87
2018-08-19T06:57:29.431Z,100892.30
2018-08-19T07:00:32.654Z,100900.30
2018-08-19T07:03:30.617Z,100900.09
2018-08-19T07:06:31.709Z,100903.22
2018-08-19T07:09:29.669Z,100891.69
2018-08-19T07:12:30.721Z,100883.81
2018-08-19T07:15:29.629Z,100882.11
2018-08-19T07:18:28.734Z,100885.05
2018-08-19T07:21:26.561Z,100898.02
2018-08-19T07:24:24.344Z,100893.14
2018-08-19T07:27:23.200Z,100890.59
2018-08-19T07:30:21.135Z,100876.48
2018-08-19T07:33:20.036Z,100883.80
2018-08-19T07:36:17.916Z,100894.63
2018-08-19T07:39:15.773Z,100886.38
2018-08-19T07:42:13.703Z,100880.55
2018-08-19T07:45:11.689Z,100884.48
2018-08-19T07:48:09.572Z,100892.67
2018-08-19T07:51:07.360Z,100890.16
2018-08-19T07:54:05.217Z,100880.56
2018-08-19T07:57:02.999Z,100876.20
2018-08-19T08:00:00.119Z,100877.53
2018-08-19T08:02:58.196Z,100877.00
2018-08-19T08:05:56.254Z,100889.34
2018-08-19T08:08:53.930Z,100887.63
2018-08-19T08:11:51.951Z,100874.20
2018-08-19T08:14:55.654Z,100885.38
2018-08-19T08:17:53.481Z,100882.72
2018-08-19T08:20:51.388Z,100871.07
2018-08-19T08:23:51.126Z,100877.63
2018-08-19T08:26:59.123Z,100876.70
2018-08-19T08:29:56.903Z,100867.08
2018-08-19T08:32:56.652Z,100873.02
2018-08-19T08:35:59.699Z,100862.49
2018-08-19T08:38:57.659Z,100858.33
2018-08-19T08:41:54.800Z,100843.63
2018-08-19T08:44:52.772Z,100847.38
2018-08-19T08:47:51.310Z,100866.91
2018-08-19T08:50:48.571Z,100875.83
2018-08-19T08:53:52.664Z,100871.33
2018-08-19T08:56:50.704Z,100864.47
2018-08-19T08:59:48.721Z,100861.16
2018-08-19T09:02:46.739Z,100854.00
2018-08-19T09:05:44.619Z,100841.66
2018-08-19T09:08:42.658Z,100846.45
2018-08-19T09:11:40.593Z,100845.67
2018-08-19T09:14:38.767Z,100847.28
2018-08-19T09:17:36.836Z,100840.23
2018-08-19T09:20:34.919Z,100830.88
2018-08-19T09:23:32.868Z,100836.43
2018-08-19T09:26:30.921Z,100839.17
2018-08-19T09:29:29.030Z,100831.02
2018-08-19T09:32:27.157Z,100822.17
2018-08-19T09:35:24.975Z,100822.93
2018-08-19T09:38:26.987Z,100827.86
2018-08-19T09:41:24.648Z,100821.75
2018-08-19T09:44:22.229Z,100861.52
2018-08-19T09:47:19.940Z,100851.70
2018-08-19T09:50:17.959Z,100849.05
2018-08-19T09:53:16.014Z,100848.28
2018-08-19T09:56:15.819Z,100827.67
2018-08-19T09:59:13.938Z,100830.70
2018-08-19T10:02:16.874Z,100823.69
2018-08-19T10:05:18.367Z,100808.11
2018-08-19T10:08:16.192Z,100821.09
2018-08-19T10:11:14.274Z,100826.95
2018-08-19T10:14:11.768Z,100820.08
2018-08-19T10:17:09.726Z,100818.20
2018-08-19T10:20:07.932Z,100807.47
2018-08-19T10:23:07.864Z,100815.60
2018-08-19T10:26:05.642Z,100807.09
2018-08-19T10:29:03.330Z,100807.83
2018-08-19T10:32:09.231Z,100802.77
2018-08-19T10:35:11.120Z,100797.45
2018-08-19T10:38:09.472Z,100786.84
2018-08-19T10:41:12.470Z,100791.21
2018-08-19T10:44:11.267Z,100786.61
2018-08-19T10:47:09.142Z,100783.81
2018-08-19T10:50:15.140Z,100772.59
2018-08-19T10:53:13.111Z,100756.91
2018-08-19T10:56:13.720Z,100757.04
2018-08-19T10:59:11.617Z,100738.02
2018-08-19T11:02:09.478Z,100730.20
2018-08-19T11:05:11.414Z,100725.52
2018-08-19T11:08:09.415Z,100724.91
2018-08-19T11:11:07.238Z,100728.25
2018-08-19T11:14:05.368Z,100739.36
2018-08-19T11:17:03.056Z,100729.28
2018-08-19T11:20:03.628Z,100716.67
2018-08-19T11:23:02.442Z,100717.27
2018-08-19T11:26:01.745Z,100714.55
2018-08-19T11:29:02.520Z,100714.20
2018-08-19T11:32:00.431Z,100708.45
2018-08-19T11:34:58.224Z,100710.33
2018-08-19T11:37:56.127Z,100714.35
2018-08-19T11:40:54.071Z,100721.02
2018-08-19T11:43:53.967Z,100721.33
2018-08-19T11:46:51.827Z,100725.70
2018-08-19T11:49:49.847Z,100720.14
2018-08-19T11:52:50.896Z,100705.55
2018-08-19T11:55:48.747Z,100703.52
2018-08-19T11:58:55.660Z,100711.08
2018-08-19T12:01:53.587Z,100698.91
2018-08-19T12:04:51.689Z,100701.11
2018-08-19T12:07:49.651Z,100693.23
2018-08-19T12:10:46.843Z,100691.92
2018-08-19T12:13:44.262Z,100688.87
2018-08-19T12:16:41.778Z,100691.95
2018-08-19T12:19:39.387Z,100690.73
2018-08-19T12:22:37.357Z,100689.18
2018-08-19T12:25:35.370Z,100681.52
2018-08-19T12:28:32.816Z,100680.08
2018-08-19T12:31:31.626Z,100667.44
2018-08-19T12:34:29.293Z,100672.73
2018-08-19T12:37:28.187Z,100653.65
2018-08-19T12:40:26.021Z,100657.41
2018-08-19T12:43:23.932Z,100658.73
2018-08-19T12:46:22.744Z,100648.48
2018-08-19T12:49:20.580Z,100633.70
2018-08-19T12:52:20.611Z,100627.77
2018-08-19T12:55:19.524Z,100638.29
2018-08-19T12:58:17.241Z,100631.36
2018-08-19T13:01:15.057Z,100618.32
2018-08-19T13:04:12.852Z,100627.72
2018-08-19T13:07:25.837Z,100617.38
2018-08-19T13:10:23.991Z,100606.91
2018-08-19T13:13:21.611Z,100604.41
2018-08-19T13:16:19.591Z,100597.66
2018-08-19T13:19:17.565Z,100613.37
2018-08-19T13:22:15.420Z,100608.59
2018-08-19T13:25:13.307Z,100594.97
2018-08-19T13:28:11.161Z,100605.02
2018-08-19T13:31:09.235Z,100596.17
2018-08-19T13:34:07.428Z,100592.00
2018-08-19T13:37:04.871Z,100588.61
2018-08-19T13:40:02.709Z,100581.92
2018-08-19T13:43:00.749Z,100588.73
2018-08-19T13:45:58.571Z,100571.31
2018-08-19T13:48:56.432Z,100576.28
2018-08-19T13:51:54.511Z,100567.61
2018-08-19T13:54:56.583Z,100572.66
2018-08-19T13:57:54.457Z,100564.12
2018-08-19T14:00:52.536Z,100549.77
2018-08-19T14:03:50.742Z,100552.94
2018-08-19T14:06:49.662Z,100553.34
2018-08-19T14:09:47.343Z,100549.60
2018-08-19T14:12:45.157Z,100536.50
2018-08-19T14:15:43.155Z,100552.19
2018-08-19T14:18:40.879Z,100545.50
2018-08-19T14:21:38.920Z,100547.35
2018-08-19T14:24:36.757Z,100541.34
2018-08-19T14:27:34.607Z,100542.84
2018-08-19T14:30:32.515Z,100537.56
2018-08-19T14:33:31.350Z,100539.08
2018-08-19T14:36:29.228Z,100537.86
2018-08-19T14:39:28.240Z,100543.44
2018-08-19T14:42:26.019Z,100540.73
2018-08-19T14:45:24.040Z,100535.95
2018-08-19T14:48:21.957Z,100526.83
2018-08-19T14:51:20.103Z,100532.43
2018-08-19T14:54:31.248Z,100514.77
2018-08-19T14:57:29.211Z,100507.55
2018-08-19T15:00:29.451Z,100523.11
2018-08-19T15:03:27.435Z,100518.53
2018-08-19T15:06:25.435Z,100519.89
2018-08-19T15:09:32.473Z,100517.88
2018-08-19T15:12:32.674Z,100512.83
2018-08-19T15:15:30.555Z,100510.09
2018-08-19T15:18:28.640Z,100501.03
2018-08-19T15:21:25.874Z,100502.02
2018-08-19T15:24:23.847Z,100506.38
2018-08-19T15:27:21.600Z,100491.36
2018-08-19T15:30:24.428Z,100488.53
2018-08-19T15:33:22.999Z,100488.94
2018-08-19T15:36:21.313Z,100490.63
2018-08-19T15:39:19.873Z,100486.69
2018-08-19T15:42:17.872Z,100482.95
2018-08-19T15:45:15.893Z,100482.06
2018-08-19T15:48:13.816Z,100477.39
2018-08-19T15:51:17.005Z,100473.67
2018-08-19T15:54:15.710Z,100479.96
2018-08-19T15:57:15.692Z,100486.77
2018-08-19T16:00:13.002Z,100481.30
2018-08-19T16:03:10.156Z,100474.62
2018-08-19T16:06:08.021Z,100482.78
2018-08-19T16:09:14.083Z,100474.37
2018-08-19T16:12:11.885Z,100475.44
2018-08-19T16:15:08.981Z,100472.92
2018-08-19T16:18:06.514Z,100479.71
2018-08-19T16:21:10.395Z,100480.73
2018-08-19T16:24:09.415Z,100475.59
2018-08-19T16:27:07.464Z,100475.23
2018-08-19T16:30:05.453Z,100472.94
2018-08-19T16:33:02.763Z,100476.59
2018-08-19T16:36:00.006Z,100474.61
2018-08-19T16:38:57.803Z,100476.52
2018-08-19T16:41:55.611Z,100472.39
2018-08-19T16:44:53.518Z,100463.41
2018-08-19T16:47:51.524Z,100470.39
2018-08-19T16:50:49.464Z,100461.77
2018-08-19T16:53:47.336Z,100464.02
2018-08-19T16:56:45.175Z,100464.03
2018-08-19T16:59:43.027Z,100463.87
2018-08-19T17:02:40.848Z,100465.97
2018-08-19T17:05:50.842Z,100467.92
2018-08-19T17:08:49.870Z,100462.05
2018-08-19T17:11:48.055Z,100464.52
2018-08-19T17:14:46.174Z,100467.13
2018-08-19T17:17:44.069Z,100463.98
2018-08-19T17:20:41.698Z,100468.31
2018-08-19T17:23:40.803Z,100461.18
2018-08-19T17:26:38.619Z,100453.99
2018-08-19T17:29:36.595Z,100460.03
2018-08-19T17:32:34.631Z,100453.20
2018-08-19T17:35:32.649Z,100458.02
2018-08-19T17:38:30.674Z,100463.14
2018-08-19T17:41:28.596Z,100464.61
2018-08-19T17:44:26.424Z,100469.44
2018-08-19T17:47:24.144Z,100461.63
2018-08-19T17:50:27.313Z,100465.98
2018-08-19T17:53:26.229Z,100465.41
2018-08-19T17:56:24.127Z,100469.22
2018-08-19T17:59:22.905Z,100469.12
2018-08-19T18:02:23.377Z,100468.86
2018-08-19T18:05:22.880Z,100479.77
2018-08-19T18:08:20.727Z,100473.98
2018-08-19T18:11:18.856Z,100480.13
2018-08-19T18:14:19.646Z,100482.62
2018-08-19T18:17:17.693Z,100482.95
2018-08-19T18:20:25.708Z,100489.91
2018-08-19T18:23:29.551Z,100489.25
2018-08-19T18:26:27.133Z,100490.27
2018-08-19T18:29:24.885Z,100487.29
2018-08-19T18:32:23.128Z,100487.28
2018-08-19T18:35:22.439Z,100495.55
2018-08-19T18:38:25.441Z,100495.77
2018-08-19T18:41:41.194Z,100497.05
2018-08-19T18:44:40.170Z,100492.69
2018-08-19T18:47:38.119Z,100488.87
2018-08-19T18:50:36.473Z,100496.71
2018-08-19T18:53:34.732Z,100490.20
2018-08-19T18:56:33.574Z,100495.47
2018-08-19T18:59:32.598Z,100494.33
2018-08-19T19:02:30.512Z,100497.64
2018-08-19T19:06:05.532Z,100496.76
2018-08-19T19:09:03.254Z,100503.36
2018-08-19T19:12:03.141Z,100501.27
2018-08-19T19:15:01.218Z,100499.78
2018-08-19T19:18:00.329Z,100509.39
2018-08-19T19:21:04.895Z,100501.19
2018-08-19T19:24:05.692Z,100503.68
2018-08-19T19:27:04.413Z,100502.59
2018-08-19T19:30:08.902Z,100499.55
2018-08-19T19:33:11.352Z,100508.63
2018-08-19T19:36:16.832Z,100504.92
2018-08-19T19:39:14.349Z,100502.06
2018-08-19T19:42:16.343Z,100497.86
2018-08-19T19:45:14.135Z,100503.89
2018-08-19T19:48:12.041Z,100504.05
2018-08-19T19:51:09.993Z,100500.82
2018-08-19T19:54:07.467Z,100508.12
2018-08-19T19:57:06.712Z,100507.84
2018-08-19T20:00:04.092Z,100507.21
2018-08-19T20:03:01.176Z,100505.98
2018-08-19T20:05:59.476Z,100505.98
2018-08-19T20:08:57.497Z,100505.34
2018-08-19T20:11:55.263Z,100504.91
2018-08-19T20:14:56.355Z,100502.35
2018-08-19T20:17:54.205Z,100510.75
2018-08-19T20:20:52.304Z,100506.48
2018-08-19T20:23:50.115Z,100502.86
2018-08-19T20:26:48.162Z,100503.37
2018-08-19T20:29:46.744Z,100508.31
2018-08-19T20:32:44.750Z,100504.11
2018-08-19T20:35:42.444Z,100501.45
2018-08-19T20:38:40.351Z,100504.36
2018-08-19T20:41:38.187Z,100507.55
2018-08-19T20:44:36.201Z,100512.69
2018-08-19T20:47:34.275Z,100513.95
2018-08-19T20:50:31.871Z,100506.85
2018-08-19T20:53:29.690Z,100508.82
2018-08-19T20:56:27.593Z,100509.36
2018-08-19T20:59:29.466Z,100513.57
2018-08-19T21:02:27.424Z,100509.28
2018-08-19T21:05:25.279Z,100514.79
2018-08-19T21:08:28.267Z,100513.97
2018-08-19T21:11:26.458Z,100523.53
2018-08-19T21:14:24.430Z,100517.39
2018-08-19T21:17:24.318Z,100518.75
2018-08-19T21:20:21.679Z,100516.11
2018-08-19T21:23:19.833Z,100513.42
2018-08-19T21:26:17.178Z,100520.60
2018-08-19T21:29:14.380Z,100523.76
2018-08-19T21:32:12.345Z,100521.28
2018-08-19T21:35:09.558Z,100527.16
2018-08-19T21:38:08.293Z,100527.38
2018-08-19T21:41:08.473Z,100528.91
2018-08-19T21:44:06.329Z,100524.78
2018-08-19T21:47:04.312Z,100520.77
2018-08-19T21:50:05.082Z,100520.27
2018-08-19T21:53:34.044Z,100527.95
2018-08-19T21:56:31.927Z,100522.84
2018-08-19T21:59:31.039Z,100525.65
2018-08-19T22:02:34.812Z,100520.99
2018-08-19T22:05:32.807Z,100524.17
2018-08-19T22:08:30.651Z,100521.50
2018-08-19T22:11:27.903Z,100523.05
2018-08-19T22:14:25.200Z,100526.02
2018-08-19T22:17:22.531Z,100520.07
2018-08-19T22:20:20.556Z,100523.20
2018-08-19T22:23:18.619Z,100522.59
2018-08-19T22:26:16.984Z,100518.61
2018-08-19T22:29:27.620Z,100524.75
2018-08-19T22:32:25.524Z,100520.77
2018-08-19T22:35:23.174Z,100525.93
2018-08-19T22:38:25.467Z,100521.20
2018-08-19T22:41:23.326Z,100525.44
2018-08-19T22:44:21.262Z,100526.16
2018-08-19T22:47:19.065Z,100525.77
2018-08-19T22:50:17.068Z,100520.36
2018-08-19T22:53:14.275Z,100517.88
2018-08-19T22:56:12.398Z,100514.75
2018-08-19T22:59:10.436Z,100515.72
2018-08-19T23:02:08.334Z,100515.08
2018-08-19T23:05:06.261Z,100509.95
2018-08-19T23:08:04.405Z,100513.95
2018-08-19T23:11:03.496Z,100512.23
2018-08-19T23:14:13.551Z,100512.02
2018-08-19T23:17:11.487Z,100511.52
2018-08-19T23:20:11.249Z,100517.94
2018-08-19T23:23:09.088Z,100510.73
2018-08-19T23:26:07.079Z,100511.96
2018-08-19T23:29:05.056Z,100515.85
2018-08-19T23:32:02.732Z,100512.28
2018-08-19T23:35:00.666Z,100513.44
2018-08-19T23:37:58.668Z,100514.70
2018-08-19T23:40:56.509Z,100510.68
2018-08-19T23:43:54.412Z,100511.41
2018-08-19T23:46:52.249Z,100511.59
2018-08-19T23:49:50.143Z,100508.22
2018-08-19T23:52:48.040Z,100504.64
2018-08-19T23:55:47.019Z,100499.99
2018-08-19T23:58:44.891Z,100509.47
